createdAt,value
2018-12-19T00:00:16.646Z,27.10
2018-12-19T00:01:16.641Z,27.60
2018-12-19T00:02:16.621Z,25.50
2018-12-19T00:03:16.613Z,29.10
2018-12-19T00:04:16.608Z,27.90
2018-12-19T00:05:16.595Z,26.90
2018-12-19T00:06:16.584Z,26.00
2018-12-19T00:07:16.573Z,28.60
2018-12-19T00:08:16.567Z,27.70
2018-12-19T00:09:16.567Z,25.50
2018-12-19T00:10:16.533Z,22.80
2018-12-19T00:11:16.542Z,27.60
2018-12-19T00:12:16.518Z,23.70
2018-12-19T00:13:16.511Z,25.80
2018-12-19T00:14:16.502Z,23.50
2018-12-19T00:15:16.483Z,25.20
2018-12-19T00:16:16.493Z,25.30
2018-12-19T00:17:16.459Z,23.80
2018-12-19T00:18:16.459Z,22.70
2018-12-19T00:19:16.444Z,25.70
2018-12-19T00:20:16.462Z,28.30
2018-12-19T00:21:16.426Z,26.30
2018-12-19T00:22:16.408Z,25.00
2018-12-19T00:23:17.412Z,19.80
2018-12-19T00:24:16.390Z,27.70
2018-12-19T00:25:16.379Z,28.10
2018-12-19T00:26:16.393Z,28.50
2018-12-19T00:27:16.371Z,22.90
2018-12-19T00:28:16.378Z,25.80
2018-12-19T00:29:16.365Z,23.30
2018-12-19T00:30:16.324Z,25.90
2018-12-19T00:31:16.315Z,24.50
2018-12-19T00:32:16.310Z,24.30
2018-12-19T00:33:18.180Z,22.90
2018-12-19T00:34:17.284Z,22.10
2018-12-19T00:35:16.278Z,26.30
2018-12-19T00:36:16.305Z,24.00
2018-12-19T00:37:16.247Z,26.60
2018-12-19T00:38:16.271Z,26.40
2018-12-19T00:39:16.232Z,20.00
2018-12-19T00:40:16.222Z,24.70
2018-12-19T00:41:16.215Z,24.90
2018-12-19T00:42:16.217Z,23.90
2018-12-19T00:43:16.197Z,23.10
2018-12-19T00:44:16.205Z,20.30
2018-12-19T00:45:16.173Z,24.50
2018-12-19T00:46:16.167Z,25.00
2018-12-19T00:47:16.159Z,22.00
2018-12-19T00:48:16.137Z,18.50
2018-12-19T00:49:16.131Z,26.10
2018-12-19T00:50:16.128Z,22.80
2018-12-19T00:51:16.105Z,24.20
2018-12-19T00:52:16.088Z,23.90
2018-12-19T00:53:16.678Z,21.40
2018-12-19T00:54:16.076Z,23.90
2018-12-19T00:55:16.078Z,25.70
2018-12-19T00:56:16.060Z,25.90
2018-12-19T00:57:16.051Z,24.70
2018-12-19T00:58:16.045Z,24.50
2018-12-19T00:59:16.025Z,25.70
2018-12-19T01:00:16.679Z,25.30
2018-12-19T01:01:16.003Z,25.90
2018-12-19T01:02:15.994Z,25.80
2018-12-19T01:03:15.980Z,24.30
2018-12-19T01:04:15.973Z,25.80
2018-12-19T01:05:15.964Z,27.20
2018-12-19T01:06:15.968Z,26.90
2018-12-19T01:07:15.957Z,27.90
2018-12-19T01:08:15.934Z,22.80
2018-12-19T01:09:16.153Z,25.30
2018-12-19T01:10:15.912Z,27.90
2018-12-19T01:11:15.909Z,26.80
2018-12-19T01:12:15.895Z,25.20
2018-12-19T01:13:15.882Z,27.30
2018-12-19T01:14:15.897Z,25.90
2018-12-19T01:15:17.699Z,25.10
2018-12-19T01:16:15.852Z,24.60
2018-12-19T01:17:15.835Z,26.30
2018-12-19T01:18:15.844Z,24.50
2018-12-19T01:19:15.821Z,24.60
2018-12-19T01:20:15.805Z,26.60
2018-12-19T01:21:15.799Z,21.50
2018-12-19T01:22:15.785Z,25.90
2018-12-19T01:23:15.771Z,24.30
2018-12-19T01:24:15.776Z,25.90
2018-12-19T01:25:15.756Z,25.40
2018-12-19T01:26:15.755Z,24.00
2018-12-19T01:27:15.732Z,25.60
2018-12-19T01:28:15.714Z,25.20
2018-12-19T01:29:15.706Z,24.50
2018-12-19T01:30:15.717Z,25.10
2018-12-19T01:31:15.684Z,24.20
2018-12-19T01:32:15.680Z,25.20
2018-12-19T01:33:15.679Z,25.00
2018-12-19T01:34:15.658Z,23.50
2018-12-19T01:35:15.646Z,25.20
2018-12-19T01:36:15.630Z,22.40
2018-12-19T01:37:15.615Z,24.00
2018-12-19T01:38:15.621Z,25.70
2018-12-19T01:39:15.600Z,23.40
2018-12-19T01:40:15.619Z,23.70
2018-12-19T01:41:15.576Z,24.90
2018-12-19T01:42:15.570Z,25.10
2018-12-19T01:43:15.556Z,23.00
2018-12-19T01:44:15.560Z,24.00
2018-12-19T01:45:15.541Z,20.50
2018-12-19T01:46:15.526Z,24.60
2018-12-19T01:47:15.548Z,20.50
2018-12-19T01:48:15.524Z,25.20
2018-12-19T01:49:17.190Z,24.40
2018-12-19T01:50:15.511Z,25.10
2018-12-19T01:51:15.473Z,25.90
2018-12-19T01:52:15.467Z,24.20
2018-12-19T01:53:15.441Z,22.10
2018-12-19T01:54:15.440Z,24.40
2018-12-19T01:55:15.426Z,24.20
2018-12-19T01:56:15.427Z,25.20
2018-12-19T01:57:15.407Z,24.00
2018-12-19T01:58:15.417Z,23.90
2018-12-19T01:59:15.382Z,22.20
2018-12-19T02:00:15.369Z,22.90
2018-12-19T02:01:15.383Z,24.40
2018-12-19T02:02:15.350Z,25.00
2018-12-19T02:03:15.343Z,23.10
2018-12-19T02:04:15.328Z,23.80
2018-12-19T02:05:15.313Z,24.60
2018-12-19T02:06:15.324Z,24.60
2018-12-19T02:07:15.303Z,22.00
2018-12-19T02:08:15.297Z,22.30
2018-12-19T02:09:15.272Z,24.40
2018-12-19T02:10:15.285Z,23.60
2018-12-19T02:11:15.270Z,25.50
2018-12-19T02:12:17.182Z,22.70
2018-12-19T02:13:15.268Z,23.20
2018-12-19T02:14:15.233Z,23.00
2018-12-19T02:15:15.246Z,24.20
2018-12-19T02:16:15.214Z,24.60
2018-12-19T02:17:15.187Z,22.90
2018-12-19T02:18:15.196Z,24.70
2018-12-19T02:19:15.178Z,22.70
2018-12-19T02:20:15.166Z,22.50
2018-12-19T02:21:15.146Z,23.70
2018-12-19T02:22:15.135Z,22.90
2018-12-19T02:23:15.170Z,20.30
2018-12-19T02:24:15.119Z,22.50
2018-12-19T02:25:15.104Z,22.50
2018-12-19T02:26:15.108Z,22.10
2018-12-19T02:27:15.113Z,21.40
2018-12-19T02:28:15.074Z,22.40
2018-12-19T02:29:15.061Z,21.20
2018-12-19T02:30:15.058Z,19.80
2018-12-19T02:31:15.043Z,20.60
2018-12-19T02:32:15.028Z,18.80
2018-12-19T02:33:15.031Z,22.60
2018-12-19T02:34:15.010Z,21.10
2018-12-19T02:35:15.012Z,19.50
2018-12-19T02:36:14.991Z,18.00
2018-12-19T02:37:16.706Z,22.20
2018-12-19T02:38:14.967Z,17.90
2018-12-19T02:39:14.960Z,20.20
2018-12-19T02:40:14.947Z,22.00
2018-12-19T02:41:14.967Z,21.80
2018-12-19T02:42:14.950Z,21.50
2018-12-19T02:43:14.910Z,21.90
2018-12-19T02:44:14.903Z,20.80
2018-12-19T02:45:14.993Z,19.90
2018-12-19T02:46:14.884Z,18.00
2018-12-19T02:47:14.871Z,21.20
2018-12-19T02:48:16.678Z,17.30
2018-12-19T02:49:14.851Z,18.70
2018-12-19T02:50:14.852Z,14.70
2018-12-19T02:51:14.825Z,18.50
2018-12-19T02:52:14.821Z,20.40
2018-12-19T02:53:21.972Z,20.70
2018-12-19T02:54:21.976Z,20.00
2018-12-19T02:55:16.757Z,21.30
2018-12-19T02:56:14.772Z,22.00
2018-12-19T02:57:14.766Z,20.90
2018-12-19T02:58:14.752Z,21.60
2018-12-19T02:59:14.743Z,20.70
2018-12-19T03:00:14.759Z,19.60
2018-12-19T03:01:14.724Z,21.30
2018-12-19T03:02:14.710Z,21.00
2018-12-19T03:03:14.699Z,19.30
2018-12-19T03:04:16.281Z,21.70
2018-12-19T03:05:14.680Z,20.10
2018-12-19T03:06:14.678Z,18.30
2018-12-19T03:07:14.680Z,20.70
2018-12-19T03:08:14.649Z,18.10
2018-12-19T03:09:14.650Z,21.60
2018-12-19T03:10:14.631Z,19.50
2018-12-19T03:11:14.638Z,21.10
2018-12-19T03:12:14.650Z,21.20
2018-12-19T03:13:14.629Z,22.60
2018-12-19T03:14:14.622Z,20.50
2018-12-19T03:15:14.629Z,19.10
2018-12-19T03:16:14.561Z,20.80
2018-12-19T03:17:14.561Z,19.70
2018-12-19T03:18:14.547Z,21.10
2018-12-19T03:19:14.550Z,20.50
2018-12-19T03:20:14.512Z,19.90
2018-12-19T03:22:06.406Z,19.30
2018-12-19T03:23:06.370Z,19.00
2018-12-19T03:24:06.358Z,19.80
2018-12-19T03:25:06.358Z,20.60
2018-12-19T03:26:06.343Z,21.80
2018-12-19T03:27:06.321Z,17.10
2018-12-19T03:28:08.120Z,20.60
2018-12-19T03:29:06.307Z,21.40
2018-12-19T03:30:06.351Z,20.00
2018-12-19T03:31:07.249Z,17.30
2018-12-19T03:32:06.282Z,21.20
2018-12-19T03:33:06.265Z,22.10
2018-12-19T03:34:06.258Z,20.90
2018-12-19T03:35:06.253Z,18.90
2018-12-19T03:36:06.260Z,20.50
2018-12-19T03:37:06.238Z,19.80
2018-12-19T03:38:06.219Z,20.70
2018-12-19T03:39:06.194Z,20.50
2018-12-19T03:40:06.185Z,15.90
2018-12-19T03:41:06.175Z,19.00
2018-12-19T03:42:06.169Z,20.90
2018-12-19T03:43:06.176Z,20.50
2018-12-19T03:44:06.167Z,19.10
2018-12-19T03:45:06.197Z,19.30
2018-12-19T03:46:06.181Z,21.10
2018-12-19T03:47:07.624Z,15.70
2018-12-19T03:48:06.161Z,20.90
2018-12-19T03:49:06.106Z,20.40
2018-12-19T03:50:06.080Z,20.30
2018-12-19T03:51:06.089Z,20.30
2018-12-19T03:52:06.052Z,21.10
2018-12-19T03:53:06.049Z,20.70
2018-12-19T03:54:06.050Z,19.50
2018-12-19T03:55:06.021Z,21.50
2018-12-19T03:56:06.014Z,20.70
2018-12-19T03:57:06.002Z,21.00
2018-12-19T03:58:05.989Z,19.50
2018-12-19T03:59:05.976Z,21.30
2018-12-19T04:00:13.408Z,20.60
2018-12-19T04:01:05.961Z,21.50
2018-12-19T04:02:05.947Z,21.00
2018-12-19T04:03:05.938Z,19.60
2018-12-19T04:04:05.948Z,18.90
2018-12-19T04:05:05.919Z,21.70
2018-12-19T04:06:05.911Z,20.60
2018-12-19T04:07:05.902Z,19.50
2018-12-19T04:08:05.888Z,21.10
2018-12-19T04:09:05.888Z,20.80
2018-12-19T04:10:05.863Z,19.40
2018-12-19T04:11:05.858Z,20.80
2018-12-19T04:12:05.838Z,16.80
2018-12-19T04:13:05.835Z,18.10
2018-12-19T04:14:05.817Z,17.40
2018-12-19T04:15:05.812Z,20.20
2018-12-19T04:16:05.797Z,18.80
2018-12-19T04:17:05.788Z,20.40
2018-12-19T04:18:05.841Z,19.50
2018-12-19T04:19:05.766Z,19.30
2018-12-19T04:20:05.750Z,19.00
2018-12-19T04:21:05.755Z,20.10
2018-12-19T04:22:05.735Z,19.90
2018-12-19T04:23:05.728Z,14.60
2018-12-19T04:24:05.722Z,18.80
2018-12-19T04:25:05.763Z,20.10
2018-12-19T04:26:05.750Z,19.80
2018-12-19T04:27:05.691Z,19.80
2018-12-19T04:28:05.684Z,18.30
2018-12-19T04:29:05.660Z,18.80
2018-12-19T04:30:05.653Z,20.20
2018-12-19T04:31:05.642Z,20.50
2018-12-19T04:32:05.638Z,19.70
2018-12-19T04:33:05.635Z,19.30
2018-12-19T04:34:07.162Z,20.10
2018-12-19T04:35:05.611Z,13.50
2018-12-19T04:36:05.619Z,19.10
2018-12-19T04:37:05.587Z,17.50
2018-12-19T04:38:05.565Z,17.80
2018-12-19T04:39:05.557Z,17.90
2018-12-19T04:40:06.101Z,19.40
2018-12-19T04:41:05.547Z,20.80
2018-12-19T04:42:05.517Z,18.50
2018-12-19T04:43:05.587Z,19.40
2018-12-19T04:44:05.497Z,20.80
2018-12-19T04:45:05.494Z,18.20
2018-12-19T04:46:05.612Z,21.00
2018-12-19T04:47:05.511Z,17.00
2018-12-19T04:48:05.463Z,19.70
2018-12-19T04:49:05.454Z,18.10
2018-12-19T04:50:05.446Z,15.40
2018-12-19T04:51:05.418Z,18.50
2018-12-19T04:52:05.412Z,17.00
2018-12-19T04:53:05.399Z,16.50
2018-12-19T04:54:07.175Z,18.70
2018-12-19T04:55:05.382Z,19.40
2018-12-19T04:56:05.372Z,12.30
2018-12-19T04:57:05.360Z,19.80
2018-12-19T04:58:05.348Z,19.80
2018-12-19T04:59:05.335Z,18.00
2018-12-19T05:00:06.132Z,16.30
2018-12-19T05:01:05.313Z,18.00
2018-12-19T05:02:05.315Z,20.20
2018-12-19T05:03:05.297Z,19.70
2018-12-19T05:04:05.284Z,20.20
2018-12-19T05:05:05.270Z,18.10
2018-12-19T05:06:05.263Z,15.90
2018-12-19T05:07:05.253Z,19.40
2018-12-19T05:08:05.239Z,19.30
2018-12-19T05:09:57.150Z,18.20
2018-12-19T05:10:57.143Z,17.70
2018-12-19T05:11:57.132Z,21.30
2018-12-19T05:12:57.130Z,21.50
2018-12-19T05:13:57.099Z,20.30
2018-12-19T05:14:57.105Z,18.50
2018-12-19T05:15:57.090Z,20.50
2018-12-19T05:16:57.074Z,16.80
2018-12-19T05:17:57.056Z,19.90
2018-12-19T05:18:57.055Z,19.50
2018-12-19T05:19:57.040Z,18.90
2018-12-19T05:20:57.034Z,16.30
2018-12-19T05:21:57.023Z,19.20
2018-12-19T05:22:57.010Z,19.20
2018-12-19T05:23:57.001Z,15.90
2018-12-19T05:24:56.991Z,17.60
2018-12-19T05:25:56.973Z,13.80
2018-12-19T05:26:56.972Z,19.40
2018-12-19T05:27:56.962Z,17.80
2018-12-19T05:28:56.954Z,17.40
2018-12-19T05:29:56.962Z,17.50
2018-12-19T05:30:58.850Z,19.30
2018-12-19T05:31:56.922Z,19.70
2018-12-19T05:32:56.912Z,17.10
2018-12-19T05:33:56.893Z,20.00
2018-12-19T05:34:57.849Z,17.50
2018-12-19T05:35:56.930Z,18.90
2018-12-19T05:36:59.951Z,13.50
2018-12-19T05:37:56.893Z,21.30
2018-12-19T05:38:56.844Z,18.70
2018-12-19T05:39:56.838Z,17.10
2018-12-19T05:40:56.827Z,20.90
2018-12-19T05:41:56.827Z,20.30
2018-12-19T05:42:56.809Z,20.70
2018-12-19T05:43:56.792Z,22.90
2018-12-19T05:44:56.779Z,20.90
2018-12-19T05:45:56.772Z,20.70
2018-12-19T05:46:56.762Z,21.40
2018-12-19T05:47:56.750Z,19.50
2018-12-19T05:48:56.740Z,22.30
2018-12-19T05:49:56.724Z,20.60
2018-12-19T05:50:56.720Z,16.60
2018-12-19T05:51:56.710Z,18.70
2018-12-19T05:52:56.701Z,20.50
2018-12-19T05:53:56.685Z,18.40
2018-12-19T05:54:56.685Z,21.20
2018-12-19T05:55:56.673Z,15.70
2018-12-19T05:56:58.333Z,15.80
2018-12-19T05:57:56.651Z,21.00
2018-12-19T05:58:56.631Z,19.70
2018-12-19T05:59:56.628Z,18.40
2018-12-19T06:00:56.619Z,18.80
2018-12-19T06:01:56.608Z,17.50
2018-12-19T06:02:56.601Z,20.30
2018-12-19T06:03:56.589Z,22.00
2018-12-19T06:04:56.592Z,15.50
2018-12-19T06:05:56.565Z,19.20
2018-12-19T06:06:56.553Z,16.90
2018-12-19T06:07:56.552Z,20.80
2018-12-19T06:08:56.538Z,19.70
2018-12-19T06:09:56.543Z,20.00
2018-12-19T06:10:56.527Z,19.40
2018-12-19T06:11:56.491Z,18.50
2018-12-19T06:12:56.502Z,18.80
2018-12-19T06:13:56.475Z,18.20
2018-12-19T06:14:56.488Z,20.40
2018-12-19T06:15:56.465Z,21.80
2018-12-19T06:16:56.448Z,16.80
2018-12-19T06:17:56.433Z,18.40
2018-12-19T06:18:56.426Z,20.70
2018-12-19T06:19:56.419Z,19.20
2018-12-19T06:20:56.408Z,14.20
2018-12-19T06:21:56.390Z,16.80
2018-12-19T06:22:56.389Z,12.20
2018-12-19T06:23:56.372Z,12.00
2018-12-19T06:24:56.362Z,19.10
2018-12-19T06:25:56.373Z,19.60
2018-12-19T06:27:48.424Z,19.00
2018-12-19T06:28:48.466Z,18.60
2018-12-19T06:29:48.398Z,20.80
2018-12-19T06:30:48.401Z,15.90
2018-12-19T06:31:48.386Z,18.30
2018-12-19T06:32:48.378Z,20.00
2018-12-19T06:33:48.362Z,17.80
2018-12-19T06:34:48.351Z,19.10
2018-12-19T06:35:49.954Z,17.00
2018-12-19T06:36:48.328Z,18.80
2018-12-19T06:37:48.315Z,18.90
2018-12-19T06:38:48.309Z,18.20
2018-12-19T06:39:48.298Z,18.80
2018-12-19T06:40:48.287Z,20.10
2018-12-19T06:41:48.277Z,16.00
2018-12-19T06:42:48.294Z,20.20
2018-12-19T06:43:48.269Z,21.20
2018-12-19T06:44:48.241Z,13.90
2018-12-19T06:45:48.233Z,19.90
2018-12-19T06:46:48.239Z,17.80
2018-12-19T06:47:48.220Z,19.00
2018-12-19T06:48:48.208Z,17.70
2018-12-19T06:49:48.188Z,18.40
2018-12-19T06:50:48.190Z,20.30
2018-12-19T06:51:48.169Z,20.50
2018-12-19T06:52:48.160Z,18.60
2018-12-19T06:53:48.158Z,14.60
2018-12-19T06:54:48.150Z,19.60
2018-12-19T06:55:48.131Z,20.60
2018-12-19T06:56:48.123Z,12.80
2018-12-19T06:57:48.113Z,17.10
2018-12-19T06:58:48.101Z,15.30
2018-12-19T06:59:48.092Z,19.70
2018-12-19T07:00:48.090Z,17.20
2018-12-19T07:01:48.067Z,20.10
2018-12-19T07:02:48.060Z,19.50
2018-12-19T07:03:48.053Z,20.40
2018-12-19T07:04:48.056Z,20.20
2018-12-19T07:05:48.019Z,18.80
2018-12-19T07:06:49.957Z,17.30
2018-12-19T07:07:48.000Z,17.50
2018-12-19T07:08:47.997Z,21.10
2018-12-19T07:09:47.978Z,15.00
2018-12-19T07:10:47.978Z,14.40
2018-12-19T07:11:47.963Z,13.00
2018-12-19T07:12:47.950Z,19.40
2018-12-19T07:13:47.945Z,20.70
2018-12-19T07:14:47.931Z,17.60
2018-12-19T07:15:47.931Z,21.70
2018-12-19T07:16:47.909Z,19.90
2018-12-19T07:17:47.910Z,20.10
2018-12-19T07:18:47.892Z,17.40
2018-12-19T07:19:47.880Z,19.60
2018-12-19T07:20:47.867Z,17.20
2018-12-19T07:21:47.863Z,21.40
2018-12-19T07:22:47.851Z,19.00
2018-12-19T07:23:47.868Z,18.00
2018-12-19T07:24:47.833Z,18.80
2018-12-19T07:25:47.825Z,17.30
2018-12-19T07:26:47.805Z,18.60
2018-12-19T07:27:48.464Z,19.00
2018-12-19T07:28:47.797Z,18.00
2018-12-19T07:29:47.774Z,19.60
2018-12-19T07:30:47.774Z,19.50
2018-12-19T07:31:47.747Z,18.50
2018-12-19T07:32:47.750Z,21.40
2018-12-19T07:33:47.739Z,20.20
2018-12-19T07:34:47.730Z,13.00
2018-12-19T07:35:47.723Z,17.80
2018-12-19T07:36:47.704Z,19.30
2018-12-19T07:37:47.711Z,20.00
2018-12-19T07:38:47.693Z,17.80
2018-12-19T07:39:47.678Z,19.30
2018-12-19T07:40:47.678Z,19.00
2018-12-19T07:41:47.652Z,20.70
2018-12-19T07:42:47.645Z,21.40
2018-12-19T07:43:47.632Z,18.50
2018-12-19T07:44:47.617Z,21.20
2018-12-19T07:45:47.616Z,19.90
2018-12-19T07:46:47.595Z,18.80
2018-12-19T07:47:47.603Z,20.90
2018-12-19T07:48:47.608Z,19.20
2018-12-19T07:49:47.568Z,21.30
2018-12-19T07:50:47.554Z,20.00
2018-12-19T07:51:49.458Z,17.20
2018-12-19T07:52:47.540Z,21.80
2018-12-19T07:53:47.521Z,19.50
2018-12-19T07:54:47.532Z,19.00
2018-12-19T07:55:47.504Z,20.90
2018-12-19T07:56:47.507Z,18.80
2018-12-19T07:57:47.493Z,18.00
2018-12-19T07:58:47.487Z,19.00
2018-12-19T07:59:48.464Z,17.10
2018-12-19T08:00:47.459Z,18.80
2018-12-19T08:01:47.468Z,15.20
2018-12-19T08:02:47.430Z,20.50
2018-12-19T08:03:47.418Z,19.70
2018-12-19T08:04:47.421Z,20.00
2018-12-19T08:05:47.397Z,20.20
2018-12-19T08:06:47.392Z,19.60
2018-12-19T08:07:47.375Z,19.90
2018-12-19T08:08:48.956Z,14.70
2018-12-19T08:09:47.965Z,18.00
2018-12-19T08:10:52.199Z,16.80
2018-12-19T08:11:48.339Z,19.40
2018-12-19T08:12:47.318Z,21.20
2018-12-19T08:13:47.322Z,17.50
2018-12-19T08:14:47.300Z,19.90
2018-12-19T08:15:47.299Z,15.60
2018-12-19T08:16:47.295Z,17.20
2018-12-19T08:17:47.277Z,17.00
2018-12-19T08:18:47.261Z,14.70
2018-12-19T08:19:47.245Z,19.40
2018-12-19T08:21:39.155Z,21.30
2018-12-19T08:22:39.200Z,20.80
2018-12-19T08:23:39.137Z,19.90
2018-12-19T08:24:40.850Z,16.80
2018-12-19T08:25:39.110Z,20.30
2018-12-19T08:26:39.088Z,16.70
2018-12-19T08:27:39.089Z,15.10
2018-12-19T08:28:39.081Z,19.10
2018-12-19T08:29:39.071Z,14.70
2018-12-19T08:30:39.054Z,18.90
2018-12-19T08:31:39.047Z,18.20
2018-12-19T08:32:39.044Z,14.80
2018-12-19T08:33:39.037Z,17.30
2018-12-19T08:34:39.024Z,13.30
2018-12-19T08:35:39.012Z,19.70
2018-12-19T08:36:38.989Z,19.60
2018-12-19T08:37:38.980Z,18.30
2018-12-19T08:38:39.009Z,18.00
2018-12-19T08:39:38.971Z,17.60
2018-12-19T08:40:40.872Z,19.10
2018-12-19T08:41:38.949Z,17.80
2018-12-19T08:42:38.925Z,13.80
2018-12-19T08:43:38.921Z,15.60
2018-12-19T08:44:38.911Z,17.70
2018-12-19T08:45:38.902Z,20.10
2018-12-19T08:46:38.873Z,18.20
2018-12-19T08:47:38.869Z,17.30
2018-12-19T08:48:38.920Z,17.20
2018-12-19T08:49:38.851Z,22.00
2018-12-19T08:50:38.844Z,20.50
2018-12-19T08:51:38.850Z,24.80
2018-12-19T08:52:38.816Z,23.90
2018-12-19T08:53:38.815Z,23.60
2018-12-19T08:54:38.799Z,17.10
2018-12-19T08:55:38.785Z,19.40
2018-12-19T08:56:38.777Z,18.30
2018-12-19T08:57:38.778Z,32.70
2018-12-19T08:58:38.760Z,24.90
2018-12-19T08:59:39.327Z,20.40
2018-12-19T09:00:38.736Z,24.10
2018-12-19T09:01:38.724Z,22.90
2018-12-19T09:02:38.707Z,19.00
2018-12-19T09:03:38.698Z,18.50
2018-12-19T09:04:38.697Z,18.50
2018-12-19T09:05:38.701Z,18.90
2018-12-19T09:06:38.670Z,21.10
2018-12-19T09:07:38.653Z,20.40
2018-12-19T09:08:38.645Z,14.70
2018-12-19T09:09:38.637Z,13.50
2018-12-19T09:10:38.646Z,17.20
2018-12-19T09:11:38.658Z,10.90
2018-12-19T09:12:38.637Z,17.40
2018-12-19T09:13:38.595Z,9.40
2018-12-19T09:14:38.587Z,14.10
2018-12-19T09:15:38.590Z,19.30
2018-12-19T09:16:38.560Z,18.60
2018-12-19T09:17:38.555Z,15.80
2018-12-19T09:18:38.563Z,20.10
2018-12-19T09:19:38.550Z,14.70
2018-12-19T09:20:38.553Z,12.30
2018-12-19T09:21:46.029Z,15.70
2018-12-19T09:22:45.828Z,18.90
2018-12-19T09:23:46.628Z,17.60
2018-12-19T09:24:38.485Z,19.20
2018-12-19T09:25:38.481Z,18.60
2018-12-19T09:26:46.757Z,20.50
2018-12-19T09:27:45.658Z,14.60
2018-12-19T09:28:46.574Z,18.00
2018-12-19T09:29:40.045Z,19.60
2018-12-19T09:30:38.432Z,17.80
2018-12-19T09:31:46.109Z,16.70
2018-12-19T09:32:38.403Z,18.90
2018-12-19T09:33:38.390Z,15.10
2018-12-19T09:34:38.367Z,19.60
2018-12-19T09:35:38.375Z,15.90
2018-12-19T09:36:39.101Z,13.30
2018-12-19T09:37:38.356Z,19.20
2018-12-19T09:38:38.339Z,17.20
2018-12-19T09:39:38.335Z,14.50
2018-12-19T09:40:38.315Z,14.00
2018-12-19T09:41:38.312Z,17.10
2018-12-19T09:42:38.306Z,17.70
2018-12-19T09:43:39.065Z,13.50
2018-12-19T09:44:38.286Z,12.30
2018-12-19T09:45:38.269Z,14.70
2018-12-19T09:46:38.240Z,12.80
2018-12-19T09:47:39.112Z,14.40
2018-12-19T09:48:38.223Z,16.90
2018-12-19T09:49:38.222Z,18.50
2018-12-19T09:50:38.203Z,17.20
2018-12-19T09:51:38.208Z,15.50
2018-12-19T09:52:38.182Z,14.60
2018-12-19T09:53:38.175Z,13.40
2018-12-19T09:54:40.123Z,18.10
2018-12-19T09:55:38.154Z,14.10
2018-12-19T09:56:38.137Z,15.40
2018-12-19T09:57:38.130Z,17.30
2018-12-19T09:58:38.133Z,14.70
2018-12-19T09:59:38.127Z,11.60
2018-12-19T10:00:38.098Z,16.40
2018-12-19T10:01:38.089Z,14.90
2018-12-19T10:02:38.076Z,13.40
2018-12-19T10:04:30.914Z,17.00
2018-12-19T10:05:30.896Z,16.20
2018-12-19T10:06:30.890Z,17.80
2018-12-19T10:07:30.879Z,16.60
2018-12-19T10:08:30.870Z,22.30
2018-12-19T10:09:30.859Z,18.40
2018-12-19T10:10:30.852Z,19.50
2018-12-19T10:11:30.953Z,17.30
2018-12-19T10:12:30.838Z,18.60
2018-12-19T10:13:32.657Z,20.30
2018-12-19T10:14:32.694Z,18.50
2018-12-19T10:15:32.719Z,22.30
2018-12-19T10:16:31.672Z,19.00
2018-12-19T10:17:31.690Z,17.10
2018-12-19T10:18:31.946Z,17.60
2018-12-19T10:19:32.803Z,16.50
2018-12-19T10:20:30.843Z,18.10
2018-12-19T10:21:32.289Z,17.60
2018-12-19T10:23:23.799Z,13.10
2018-12-19T10:24:23.856Z,14.30
2018-12-19T10:25:24.076Z,13.20
2018-12-19T10:26:23.070Z,12.80
2018-12-19T10:27:23.974Z,16.50
2018-12-19T10:28:23.886Z,17.30
2018-12-19T10:29:24.185Z,13.50
2018-12-19T10:30:23.489Z,16.60
2018-12-19T10:31:25.197Z,18.10
2018-12-19T10:32:26.010Z,16.80
2018-12-19T10:33:23.111Z,17.60
2018-12-19T10:34:26.380Z,17.20
2018-12-19T10:35:23.207Z,15.70
2018-12-19T10:36:23.358Z,16.80
2018-12-19T10:37:24.015Z,19.40
2018-12-19T10:38:23.034Z,17.30
2018-12-19T10:39:23.191Z,18.60
2018-12-19T10:40:23.033Z,14.50
2018-12-19T10:41:25.586Z,18.00
2018-12-19T10:42:25.042Z,15.10
2018-12-19T10:43:24.915Z,14.70
2018-12-19T10:44:22.979Z,18.20
2018-12-19T10:45:22.912Z,11.10
2018-12-19T10:46:22.952Z,15.70
2018-12-19T10:47:22.853Z,13.30
2018-12-19T10:48:23.079Z,18.10
2018-12-19T10:49:24.479Z,17.50
2018-12-19T10:50:25.363Z,12.40
2018-12-19T10:51:23.305Z,19.10
2018-12-19T10:52:23.344Z,16.70
2018-12-19T10:53:23.871Z,19.00
2018-12-19T10:54:25.812Z,17.20
2018-12-19T10:55:24.376Z,16.40
2018-12-19T10:56:24.401Z,14.90
2018-12-19T10:57:23.083Z,17.20
2018-12-19T10:58:25.534Z,16.40
2018-12-19T10:59:23.833Z,15.60
2018-12-19T11:00:25.983Z,9.70
2018-12-19T11:01:25.937Z,13.30
2018-12-19T11:08:38.423Z,17.20
2018-12-19T11:09:29.824Z,16.80
2018-12-19T11:10:31.689Z,18.40
2018-12-19T11:11:33.603Z,12.50
2018-12-19T11:12:31.441Z,15.60
2018-12-19T11:13:33.937Z,17.40
2018-12-19T11:14:29.615Z,16.00
2018-12-19T11:15:30.414Z,17.90
2018-12-19T11:16:30.409Z,18.80
2018-12-19T11:17:29.581Z,18.50
2018-12-19T11:18:29.568Z,18.40
2018-12-19T11:19:31.438Z,15.80
2018-12-19T11:20:30.411Z,16.60
2018-12-19T11:21:30.470Z,17.40
2018-12-19T11:22:30.408Z,19.90
2018-12-19T11:23:29.597Z,17.60
2018-12-19T11:24:29.513Z,20.60
2018-12-19T11:25:29.517Z,16.30
2018-12-19T11:26:29.523Z,19.10
2018-12-19T11:27:29.471Z,19.80
2018-12-19T11:28:36.605Z,12.10
2018-12-19T11:29:38.980Z,15.50
2018-12-19T11:30:37.613Z,14.90
2018-12-19T11:31:36.892Z,14.90
2018-12-19T11:32:37.230Z,17.80
2018-12-19T11:33:29.448Z,14.50
2018-12-19T11:34:30.104Z,12.30
2018-12-19T11:35:30.165Z,11.40
2018-12-19T11:37:42.367Z,15.50
2018-12-19T11:38:50.387Z,15.40
2018-12-19T11:39:41.923Z,15.00
2018-12-19T11:40:49.454Z,12.70
2018-12-19T11:41:44.439Z,19.10
2018-12-19T11:42:51.969Z,19.90
2018-12-19T11:43:40.318Z,19.70
2018-12-19T11:44:40.300Z,15.00
2018-12-19T11:45:40.291Z,19.30
2018-12-19T11:46:40.303Z,15.20
2018-12-19T11:47:40.319Z,16.60
2018-12-19T11:48:40.251Z,17.20
2018-12-19T11:49:40.253Z,17.20
2018-12-19T11:50:40.233Z,15.80
2018-12-19T11:51:40.235Z,12.70
2018-12-19T11:52:40.213Z,18.00
2018-12-19T11:53:41.953Z,15.90
2018-12-19T11:54:40.205Z,16.60
2018-12-19T11:55:40.198Z,16.70
2018-12-19T11:56:40.182Z,17.50
2018-12-19T11:57:40.170Z,17.90
2018-12-19T11:58:48.774Z,16.60
2018-12-19T11:59:41.952Z,16.10
2018-12-19T12:00:40.139Z,15.20
2018-12-19T12:01:41.520Z,17.90
2018-12-19T12:02:40.140Z,15.80
2018-12-19T12:03:40.114Z,14.80
2018-12-19T12:04:40.126Z,17.90
2018-12-19T12:05:40.105Z,19.40
2018-12-19T12:06:50.989Z,16.50
2018-12-19T12:07:41.038Z,24.20
2018-12-19T12:08:49.049Z,17.40
2018-12-19T12:09:44.154Z,14.60
2018-12-19T12:10:42.029Z,17.00
2018-12-19T12:11:45.659Z,15.20
2018-12-19T12:12:43.057Z,14.90
2018-12-19T12:13:42.645Z,18.70
2018-12-19T12:15:05.028Z,19.80
2018-12-19T12:15:48.040Z,16.40
2018-12-19T12:16:42.028Z,11.70
2018-12-19T12:17:56.637Z,15.90
2018-12-19T12:18:39.939Z,16.20
2018-12-19T12:20:05.214Z,18.20
2018-12-19T12:22:42.531Z,11.50
2018-12-19T12:23:47.184Z,11.60
2018-12-19T12:24:45.515Z,16.10
2018-12-19T12:25:50.010Z,17.00
2018-12-19T12:26:44.520Z,15.50
2018-12-19T12:27:43.008Z,16.90
2018-12-19T12:28:46.513Z,18.10
2018-12-19T12:29:44.528Z,17.80
2018-12-19T12:30:43.528Z,15.60
2018-12-19T12:31:48.022Z,15.60
2018-12-19T12:32:45.015Z,13.20
2018-12-19T12:33:47.158Z,18.00
2018-12-19T12:34:50.028Z,13.40
2018-12-19T12:35:44.535Z,18.00
2018-12-19T12:37:13.006Z,11.60
2018-12-19T12:37:46.049Z,16.40
2018-12-19T12:38:47.041Z,16.90
2018-12-19T12:39:47.021Z,13.10
2018-12-19T12:40:42.034Z,21.20
2018-12-19T12:41:44.046Z,16.90
2018-12-19T12:43:04.056Z,19.10
2018-12-19T12:43:45.027Z,20.30
2018-12-19T12:46:38.776Z,15.20
2018-12-19T12:47:44.511Z,15.70
2018-12-19T12:48:42.245Z,17.80
2018-12-19T12:49:43.246Z,16.80
2018-12-19T12:50:28.746Z,18.40
2018-12-19T12:51:26.249Z,13.80
2018-12-19T12:52:24.304Z,15.70
2018-12-19T12:53:43.440Z,16.70
2018-12-19T12:55:41.827Z,11.70
2018-12-19T12:56:35.069Z,11.50
2018-12-19T12:57:47.832Z,14.90
2018-12-19T12:58:37.948Z,17.60
2018-12-19T13:00:28.632Z,12.60
2018-12-19T13:01:29.151Z,12.10
2018-12-19T13:02:27.349Z,16.50
2018-12-19T13:04:55.772Z,17.70
2018-12-19T13:05:59.808Z,18.20
2018-12-19T13:06:57.326Z,16.90
2018-12-19T13:07:57.356Z,17.50
2018-12-19T20:44:46.505Z,30.80
2018-12-19T20:45:44.603Z,32.60
2018-12-19T20:46:44.575Z,29.10
2018-12-19T20:47:44.578Z,28.00